createdAt,value
2017-08-04T00:00:34.345Z,10.15
2017-08-04T00:06:12.235Z,9.70
2017-08-04T00:08:45.355Z,9.20
2017-08-04T00:11:16.195Z,9.90
2017-08-04T00:16:48.591Z,9.48
2017-08-04T00:19:20.740Z,9.40
2017-08-04T00:22:15.082Z,8.77
2017-08-04T00:24:44.981Z,9.55
2017-08-04T00:27:14.692Z,9.63
2017-08-04T00:29:45.284Z,10.60
2017-08-04T00:32:15.063Z,11.60
2017-08-04T00:34:45.026Z,10.45
2017-08-04T00:37:15.014Z,9.95
2017-08-04T00:39:45.132Z,9.32
2017-08-04T00:42:15.195Z,10.40
2017-08-04T00:44:45.942Z,9.40
2017-08-04T00:47:16.000Z,9.57
2017-08-04T00:49:45.568Z,9.10
2017-08-04T00:52:15.137Z,9.02
2017-08-04T00:54:44.922Z,9.90
2017-08-04T00:57:14.450Z,9.77
2017-08-04T00:59:44.046Z,9.07
2017-08-04T01:02:14.544Z,9.27
2017-08-04T01:04:44.246Z,9.00
2017-08-04T01:07:14.445Z,9.50
2017-08-04T01:09:45.349Z,9.35
2017-08-04T01:12:15.356Z,10.05
2017-08-04T01:14:45.160Z,8.67
2017-08-04T01:17:14.709Z,10.02
2017-08-04T01:19:44.580Z,9.43
2017-08-04T01:22:14.327Z,8.88
2017-08-04T01:24:43.910Z,10.57
2017-08-04T01:27:14.191Z,10.60
2017-08-04T01:29:44.019Z,9.52
2017-08-04T01:32:13.996Z,9.38
2017-08-04T01:34:43.852Z,9.70
2017-08-04T01:37:13.350Z,9.93
2017-08-04T01:39:42.882Z,10.73
2017-08-04T01:42:12.451Z,9.70
2017-08-04T01:44:42.015Z,8.67
2017-08-04T01:47:11.827Z,9.13
2017-08-04T01:49:41.394Z,8.63
2017-08-04T01:52:11.296Z,8.90
2017-08-04T01:54:41.803Z,9.33
2017-08-04T01:57:11.675Z,9.57
2017-08-04T01:59:41.209Z,9.00
2017-08-04T02:02:10.743Z,10.20
2017-08-04T02:04:40.336Z,9.38
2017-08-04T02:07:10.216Z,9.95
2017-08-04T02:09:39.780Z,8.50
2017-08-04T02:12:09.310Z,9.02
2017-08-04T02:14:38.859Z,8.60
2017-08-04T02:17:08.374Z,9.63
2017-08-04T02:19:38.208Z,9.27
2017-08-04T02:22:07.730Z,9.68
2017-08-04T02:24:37.234Z,9.23
2017-08-04T02:27:07.463Z,8.30
2017-08-04T02:29:37.189Z,8.60
2017-08-04T02:32:07.232Z,8.60
2017-08-04T02:34:37.898Z,8.70
2017-08-04T02:37:07.890Z,8.80
2017-08-04T02:39:38.406Z,9.05
2017-08-04T02:42:08.250Z,9.02
2017-08-04T02:44:38.098Z,8.20
2017-08-04T02:47:08.570Z,8.93
2017-08-04T02:49:38.091Z,8.70
2017-08-04T02:52:07.597Z,7.87
2017-08-04T02:54:37.205Z,8.52
2017-08-04T02:57:06.782Z,8.90
2017-08-04T02:59:37.147Z,9.20
2017-08-04T03:02:07.243Z,7.82
2017-08-04T03:04:37.230Z,8.55
2017-08-04T03:07:06.903Z,8.45
2017-08-04T03:09:37.140Z,7.90
2017-08-04T03:12:07.631Z,8.03
2017-08-04T03:14:37.179Z,7.90
2017-08-04T03:17:06.748Z,7.37
2017-08-04T03:19:36.614Z,7.97
2017-08-04T03:22:06.138Z,7.40
2017-08-04T03:24:35.710Z,7.20
2017-08-04T03:27:05.230Z,8.75
2017-08-04T03:29:35.356Z,7.60
2017-08-04T03:32:05.552Z,8.50
2017-08-04T03:34:35.422Z,8.30
2017-08-04T03:37:04.983Z,8.20
2017-08-04T03:39:34.778Z,9.07
2017-08-04T03:42:04.298Z,8.40
2017-08-04T03:44:33.849Z,8.40
2017-08-04T03:47:03.662Z,8.68
2017-08-04T03:49:33.171Z,8.18
2017-08-04T03:52:03.255Z,9.35
2017-08-04T03:54:33.430Z,8.80
2017-08-04T03:57:04.251Z,8.35
2017-08-04T03:59:34.281Z,9.60
2017-08-04T04:02:05.010Z,9.27
2017-08-04T04:04:36.244Z,9.57
2017-08-04T04:07:06.097Z,10.07
2017-08-04T04:09:36.194Z,10.02
2017-08-04T04:12:06.450Z,9.68
2017-08-04T04:14:36.634Z,9.48
2017-08-04T04:17:06.192Z,11.07
2017-08-04T04:19:36.018Z,9.30
2017-08-04T04:22:05.574Z,9.40
2017-08-04T04:24:35.326Z,9.32
2017-08-04T04:27:04.904Z,9.87
2017-08-04T04:29:34.529Z,9.43
2017-08-04T04:32:04.314Z,9.93
2017-08-04T04:34:33.843Z,9.38
2017-08-04T04:37:03.391Z,8.47
2017-08-04T04:39:32.971Z,9.30
2017-08-04T04:42:02.506Z,9.30
2017-08-04T04:44:32.346Z,9.45
2017-08-04T04:47:01.899Z,8.43
2017-08-04T04:49:31.474Z,9.15
2017-08-04T04:52:01.043Z,10.00
2017-08-04T04:54:30.595Z,9.40
2017-08-04T04:57:01.733Z,8.77
2017-08-04T04:59:31.943Z,9.95
2017-08-04T05:02:02.989Z,10.20
2017-08-04T05:04:32.850Z,10.60
2017-08-04T05:07:02.734Z,10.60
2017-08-04T05:09:33.394Z,10.27
2017-08-04T05:12:03.600Z,10.15
2017-08-04T05:14:33.483Z,9.80
2017-08-04T05:17:04.815Z,8.65
2017-08-04T05:19:34.352Z,8.85
2017-08-04T05:22:03.883Z,10.15
2017-08-04T05:24:33.703Z,9.65
2017-08-04T05:27:03.370Z,11.05
2017-08-04T05:29:32.902Z,10.10
2017-08-04T05:32:02.819Z,10.43
2017-08-04T05:34:32.347Z,9.75
2017-08-04T05:37:02.159Z,9.00
2017-08-04T05:39:31.782Z,9.10
2017-08-04T05:42:01.360Z,9.50
2017-08-04T05:44:30.864Z,9.55
2017-08-04T05:47:00.572Z,9.65
2017-08-04T05:49:30.395Z,10.32
2017-08-04T05:52:00.412Z,10.23
2017-08-04T05:54:30.104Z,11.23
2017-08-04T05:56:59.630Z,10.70
2017-08-04T05:59:29.610Z,10.83
2017-08-04T06:02:00.258Z,9.15
2017-08-04T06:04:30.186Z,10.00
2017-08-04T06:06:59.794Z,11.53
2017-08-04T06:09:29.916Z,10.25
2017-08-04T06:11:59.518Z,9.60
2017-08-04T06:14:29.016Z,10.10
2017-08-04T06:16:58.625Z,9.95
2017-08-04T06:19:28.127Z,9.52
2017-08-04T06:21:58.394Z,7.93
2017-08-04T06:24:27.946Z,9.17
2017-08-04T06:26:57.797Z,9.43
2017-08-04T06:29:27.324Z,8.73
2017-08-04T06:31:56.918Z,9.27
2017-08-04T06:34:26.925Z,9.10
2017-08-04T06:36:56.687Z,9.77
2017-08-04T06:39:26.447Z,9.30
2017-08-04T06:41:56.780Z,7.83
2017-08-04T06:44:26.294Z,8.07
2017-08-04T06:46:56.487Z,7.57
2017-08-04T06:52:39.026Z,8.40
2017-08-04T06:55:35.874Z,7.67
2017-08-04T06:58:05.586Z,7.57
2017-08-04T07:00:38.664Z,7.57
2017-08-04T07:03:09.339Z,7.20
2017-08-04T07:05:46.852Z,7.40
2017-08-04T07:08:16.617Z,7.40
2017-08-04T07:10:47.348Z,7.70
2017-08-04T07:13:17.007Z,7.10
2017-08-04T07:15:46.602Z,6.70
2017-08-04T07:18:32.179Z,7.47
2017-08-04T07:21:01.750Z,7.07
2017-08-04T07:26:11.458Z,7.05
2017-08-04T07:28:44.268Z,7.57
2017-08-04T07:31:14.211Z,7.40
2017-08-04T07:33:43.889Z,6.70
2017-08-04T07:36:14.157Z,6.90
2017-08-04T07:38:45.182Z,6.97
2017-08-04T07:41:15.034Z,7.40
2017-08-04T07:43:50.342Z,7.45
2017-08-04T07:46:20.648Z,8.70
2017-08-04T07:48:50.928Z,8.20
2017-08-04T07:51:30.795Z,8.80
2017-08-04T07:54:01.063Z,9.05
2017-08-04T07:56:31.366Z,9.07
2017-08-04T07:59:00.916Z,9.88
2017-08-04T08:01:30.533Z,9.45
2017-08-04T08:04:00.618Z,9.75
2017-08-04T08:06:30.274Z,9.50
2017-08-04T08:09:00.350Z,8.85
2017-08-04T08:11:30.761Z,10.05
2017-08-04T08:14:01.035Z,9.20
2017-08-04T08:16:31.153Z,9.32
2017-08-04T08:19:01.224Z,9.80
2017-08-04T08:21:31.114Z,10.43
2017-08-04T08:24:00.650Z,9.97
2017-08-04T08:26:30.489Z,9.73
2017-08-04T08:29:00.098Z,10.38
2017-08-04T08:31:29.636Z,9.65
2017-08-04T08:33:59.156Z,10.43
2017-08-04T08:36:28.888Z,9.43
2017-08-04T08:38:59.200Z,10.00
2017-08-04T08:41:29.955Z,10.60
2017-08-04T08:44:01.035Z,10.30
2017-08-04T08:46:30.838Z,11.30
2017-08-04T08:49:01.386Z,11.75
2017-08-04T08:51:31.682Z,11.32
2017-08-04T08:54:01.303Z,11.50
2017-08-04T08:56:30.939Z,11.32
2017-08-04T08:59:01.716Z,11.17
2017-08-04T09:01:31.487Z,11.20
2017-08-04T09:04:01.047Z,10.85
2017-08-04T09:06:32.441Z,11.88
2017-08-04T09:09:02.186Z,11.47
2017-08-04T09:11:32.103Z,10.50
2017-08-04T09:14:01.848Z,10.30
2017-08-04T09:16:32.497Z,10.48
2017-08-04T09:19:03.172Z,10.63
2017-08-04T09:21:32.872Z,10.53
2017-08-04T09:24:02.805Z,11.05
2017-08-04T09:26:32.693Z,10.20
2017-08-04T09:29:02.352Z,11.33
2017-08-04T09:31:32.364Z,11.57
2017-08-04T09:34:03.558Z,11.07
2017-08-04T09:39:49.096Z,10.53
2017-08-04T09:42:19.671Z,11.33
2017-08-04T09:44:49.647Z,11.40
2017-08-04T09:47:20.555Z,11.05
2017-08-04T09:49:50.548Z,11.23
2017-08-04T09:52:20.635Z,11.65
2017-08-04T09:54:50.370Z,12.27
2017-08-04T09:57:20.456Z,10.93
2017-08-04T09:59:50.259Z,10.70
2017-08-04T10:02:21.543Z,11.10
2017-08-04T10:04:51.109Z,11.00
2017-08-04T10:07:20.947Z,11.18
2017-08-04T10:09:51.480Z,10.50
2017-08-04T10:12:21.112Z,10.83
2017-08-04T10:14:50.702Z,10.90
2017-08-04T10:17:20.296Z,10.87
2017-08-04T10:19:50.356Z,9.93
2017-08-04T10:22:20.284Z,9.38
2017-08-04T10:24:49.967Z,9.80
2017-08-04T10:27:20.458Z,9.70
2017-08-04T10:29:50.006Z,9.50
2017-08-04T10:32:19.498Z,9.55
2017-08-04T10:34:49.042Z,9.73
2017-08-04T10:37:18.727Z,8.43
2017-08-04T10:39:48.811Z,9.20
2017-08-04T10:42:18.409Z,9.55
2017-08-04T10:47:27.067Z,9.10
2017-08-04T10:49:56.600Z,10.40
2017-08-04T10:52:26.151Z,13.15
2017-08-04T10:54:55.866Z,11.23
2017-08-04T10:57:25.541Z,10.23
2017-08-04T10:59:55.403Z,12.00
2017-08-04T11:02:25.453Z,11.15
2017-08-04T11:04:55.282Z,10.90
2017-08-04T11:07:25.130Z,11.25
2017-08-04T11:09:55.318Z,10.82
2017-08-04T11:12:26.889Z,10.55
2017-08-04T11:14:57.337Z,10.00
2017-08-04T11:17:27.009Z,11.00
2017-08-04T11:19:58.267Z,11.27
2017-08-04T11:22:27.981Z,10.55
2017-08-04T11:24:57.664Z,11.60
2017-08-04T11:27:27.255Z,11.07
2017-08-04T11:29:56.965Z,11.32
2017-08-04T11:32:27.063Z,12.30
2017-08-04T11:34:58.037Z,11.75
2017-08-04T11:37:29.662Z,13.32
2017-08-04T11:39:59.475Z,11.60
2017-08-04T11:42:29.805Z,11.52
2017-08-04T11:45:04.869Z,12.40
2017-08-04T11:47:40.099Z,11.40
2017-08-04T11:50:20.961Z,11.88
2017-08-04T11:52:50.590Z,11.98
2017-08-04T11:55:20.965Z,12.93
2017-08-04T11:57:50.571Z,12.55
2017-08-04T12:00:20.135Z,11.77
2017-08-04T12:02:50.581Z,10.98
2017-08-04T12:05:20.692Z,11.30
2017-08-04T12:07:51.435Z,11.60
2017-08-04T12:10:21.428Z,11.10
2017-08-04T12:12:51.126Z,12.40
2017-08-04T12:15:23.903Z,10.70
2017-08-04T12:17:54.027Z,11.37
2017-08-04T12:20:24.726Z,10.90
2017-08-04T12:22:54.492Z,11.10
2017-08-04T12:25:24.104Z,11.50
2017-08-04T12:27:54.676Z,11.60
2017-08-04T12:30:24.365Z,11.82
2017-08-04T12:32:54.257Z,12.70
2017-08-04T12:35:24.259Z,12.65
2017-08-04T12:37:54.172Z,12.60
2017-08-04T12:40:24.171Z,12.57
2017-08-04T12:42:53.754Z,12.35
2017-08-04T12:45:24.434Z,11.68
2017-08-04T12:47:54.111Z,11.98
2017-08-04T12:50:23.898Z,11.83
2017-08-04T12:52:53.882Z,11.12
2017-08-04T12:55:23.563Z,12.07
2017-08-04T12:58:06.980Z,11.70
2017-08-04T13:03:56.319Z,11.48
2017-08-04T13:06:27.134Z,11.30
2017-08-04T13:08:57.084Z,11.30
2017-08-04T13:11:26.726Z,11.63
2017-08-04T13:13:56.843Z,11.50
2017-08-04T13:16:26.347Z,10.70
2017-08-04T13:18:56.305Z,11.27
2017-08-04T13:21:28.300Z,11.05
2017-08-04T13:23:57.837Z,11.83
2017-08-04T13:26:27.388Z,12.60
2017-08-04T13:28:57.232Z,11.70
2017-08-04T13:31:26.838Z,11.52
2017-08-04T13:33:56.652Z,11.00
2017-08-04T13:36:26.539Z,11.85
2017-08-04T13:38:56.051Z,12.80
2017-08-04T13:41:25.974Z,12.13
2017-08-04T13:43:55.569Z,11.82
2017-08-04T13:46:25.178Z,11.30
2017-08-04T13:48:54.823Z,11.50
2017-08-04T13:51:24.389Z,11.70
2017-08-04T13:53:55.135Z,11.23
2017-08-04T13:56:25.955Z,11.70
2017-08-04T13:58:55.616Z,12.00
2017-08-04T14:01:25.187Z,11.93
2017-08-04T14:03:54.853Z,11.40
2017-08-04T14:06:25.404Z,12.43
2017-08-04T14:08:55.254Z,12.00
2017-08-04T14:11:24.948Z,12.90
2017-08-04T14:13:55.988Z,12.80
2017-08-04T14:16:25.892Z,13.00
2017-08-04T14:18:55.463Z,14.15
2017-08-04T14:21:25.543Z,12.07
2017-08-04T14:23:55.116Z,12.90
2017-08-04T14:26:24.910Z,13.02
2017-08-04T14:28:54.456Z,13.27
2017-08-04T14:31:24.730Z,12.85
2017-08-04T14:33:54.692Z,12.90
2017-08-04T14:36:24.999Z,13.10
2017-08-04T14:38:55.732Z,13.15
2017-08-04T14:41:25.527Z,13.30
2017-08-04T14:43:55.767Z,13.00
2017-08-04T14:46:25.684Z,13.18
2017-08-04T14:48:55.291Z,14.13
2017-08-04T14:51:26.115Z,13.23
2017-08-04T14:53:56.484Z,13.50
2017-08-04T14:56:26.123Z,14.43
2017-08-04T14:58:55.723Z,13.62
2017-08-04T15:01:25.647Z,13.98
2017-08-04T15:03:55.578Z,13.25
2017-08-04T15:06:25.916Z,14.10
2017-08-04T15:08:55.616Z,14.53
2017-08-04T15:11:25.520Z,13.70
2017-08-04T15:13:55.426Z,13.50
2017-08-04T15:16:24.951Z,12.80
2017-08-04T15:18:56.750Z,13.00
2017-08-04T15:21:27.364Z,12.18
2017-08-04T15:23:58.157Z,13.32
2017-08-04T15:26:28.135Z,13.23
2017-08-04T15:28:57.801Z,13.00
2017-08-04T15:31:28.263Z,12.85
2017-08-04T15:33:58.317Z,12.80
2017-08-04T15:36:29.053Z,13.00
2017-08-04T15:39:00.263Z,12.68
2017-08-04T15:41:30.326Z,13.20
2017-08-04T15:44:00.020Z,12.63
2017-08-04T15:46:30.912Z,14.25
2017-08-04T15:49:00.945Z,13.88
2017-08-04T15:51:30.598Z,12.70
2017-08-04T15:54:00.740Z,12.52
2017-08-04T15:56:30.806Z,14.07
2017-08-04T15:59:01.216Z,14.00
2017-08-04T16:01:31.082Z,14.13
2017-08-04T16:04:00.669Z,12.93
2017-08-04T16:06:30.571Z,13.40
2017-08-04T16:09:00.161Z,12.85
2017-08-04T16:11:30.060Z,12.70
2017-08-04T16:14:00.813Z,13.20
2017-08-04T16:16:31.689Z,13.40
2017-08-04T16:19:02.823Z,13.32
2017-08-04T16:21:32.445Z,12.65
2017-08-04T16:24:02.131Z,12.65
2017-08-04T16:28:01.079Z,13.73
2017-08-04T16:30:30.922Z,13.93
2017-08-04T16:33:00.536Z,13.50
2017-08-04T16:35:30.325Z,13.80
2017-08-04T16:38:00.095Z,14.40
2017-08-04T16:40:29.686Z,14.25
2017-08-04T16:42:59.527Z,13.20
2017-08-04T16:45:29.230Z,13.88
2017-08-04T16:50:39.120Z,16.30
2017-08-04T16:53:08.618Z,14.50
2017-08-04T16:55:38.419Z,13.57
2017-08-04T16:58:08.094Z,13.32
2017-08-04T17:00:38.163Z,13.68
2017-08-04T17:03:08.046Z,13.30
2017-08-04T17:05:37.809Z,14.13
2017-08-04T17:08:08.079Z,13.60
2017-08-04T17:10:38.254Z,14.10
2017-08-04T17:13:08.593Z,14.70
2017-08-04T17:15:39.167Z,14.48
2017-08-04T17:18:23.306Z,14.07
2017-08-04T17:20:55.954Z,15.07
2017-08-04T17:23:26.712Z,14.30
2017-08-04T17:25:58.644Z,14.55
2017-08-04T17:28:28.299Z,14.40
2017-08-04T17:30:57.962Z,14.70
2017-08-04T17:33:28.046Z,14.00
2017-08-04T17:35:57.657Z,14.30
2017-08-04T17:38:28.256Z,14.20
2017-08-04T17:40:58.229Z,13.60
2017-08-04T17:43:28.007Z,13.57
2017-08-04T17:45:58.319Z,13.07
2017-08-04T17:48:28.603Z,15.20
2017-08-04T17:50:58.965Z,15.30
2017-08-04T17:53:28.804Z,15.40
2017-08-04T17:55:59.116Z,15.70
2017-08-04T17:58:36.800Z,16.08
2017-08-04T18:01:06.567Z,13.47
2017-08-04T18:03:36.383Z,14.00
2017-08-04T18:06:09.154Z,14.52
2017-08-04T18:08:39.563Z,14.10
2017-08-04T18:11:10.030Z,14.80
2017-08-04T18:13:40.021Z,14.80
2017-08-04T18:16:10.035Z,14.55
2017-08-04T18:18:41.358Z,14.43
2017-08-04T18:21:18.644Z,14.30
2017-08-04T18:23:48.528Z,14.70
2017-08-04T18:26:18.377Z,15.50
2017-08-04T18:28:48.318Z,15.43
2017-08-04T18:31:17.894Z,14.60
2017-08-04T18:33:47.466Z,13.85
2017-08-04T18:36:17.316Z,13.80
2017-08-04T18:38:46.911Z,12.93
2017-08-04T18:41:16.513Z,15.50
2017-08-04T18:43:46.348Z,13.35
2017-08-04T18:46:15.882Z,13.35
2017-08-04T18:48:45.417Z,15.27
2017-08-04T18:51:15.340Z,14.30
2017-08-04T18:53:45.055Z,14.60
2017-08-04T18:56:15.173Z,14.67
2017-08-04T18:58:46.067Z,14.43
2017-08-04T19:01:15.658Z,15.55
2017-08-04T19:03:46.219Z,16.10
2017-08-04T19:06:16.140Z,16.30
2017-08-04T19:08:45.728Z,16.65
2017-08-04T19:11:15.359Z,15.10
2017-08-04T19:13:45.959Z,14.23
2017-08-04T19:16:15.782Z,13.90
2017-08-04T19:18:45.345Z,15.20
2017-08-04T19:21:14.953Z,14.20
2017-08-04T19:23:48.703Z,14.85
2017-08-04T19:26:38.778Z,15.05
2017-08-04T19:29:08.998Z,15.00
2017-08-04T19:31:38.604Z,15.85
2017-08-04T19:34:08.532Z,14.90
2017-08-04T19:36:38.442Z,15.85
2017-08-04T19:40:38.137Z,16.43
2017-08-04T19:47:38.727Z,15.50
2017-08-04T19:50:08.849Z,16.27
2017-08-04T19:52:38.771Z,17.67
2017-08-04T19:55:08.621Z,17.12
2017-08-04T19:57:38.637Z,14.77
2017-08-04T20:00:08.247Z,14.83
2017-08-04T20:02:39.569Z,16.05
2017-08-04T20:05:11.074Z,15.32
2017-08-04T20:07:40.883Z,17.52
2017-08-04T20:10:11.160Z,17.35
2017-08-04T20:12:42.775Z,17.65
2017-08-04T20:15:12.506Z,17.20
2017-08-04T20:17:42.151Z,16.73
2017-08-04T20:20:11.759Z,15.80
2017-08-04T20:22:41.319Z,14.25
2017-08-04T20:27:49.890Z,13.40
2017-08-04T20:30:20.283Z,13.27
2017-08-04T20:32:50.260Z,13.55
2017-08-04T20:35:19.867Z,13.60
2017-08-04T20:37:49.761Z,13.40
2017-08-04T20:40:19.301Z,14.73
2017-08-04T20:42:50.312Z,15.50
2017-08-04T20:45:20.416Z,15.73
2017-08-04T20:47:49.948Z,15.75
2017-08-04T20:50:20.831Z,13.60
2017-08-04T20:52:50.762Z,13.00
2017-08-04T20:55:20.408Z,13.70
2017-08-04T20:57:49.947Z,12.93
2017-08-04T21:00:19.436Z,12.52
2017-08-04T21:02:48.961Z,12.80
2017-08-04T21:05:18.807Z,12.68
2017-08-04T21:07:48.748Z,12.57
2017-08-04T21:10:18.929Z,12.75
2017-08-04T21:12:49.193Z,13.95
2017-08-04T21:15:18.803Z,14.23
2017-08-04T21:17:48.697Z,15.50
2017-08-04T21:20:18.608Z,15.55
2017-08-04T21:22:48.200Z,15.47
2017-08-04T21:25:18.362Z,15.70
2017-08-04T21:27:47.875Z,14.93
2017-08-04T21:30:17.555Z,14.27
2017-08-04T21:32:47.266Z,14.25
2017-08-04T21:35:16.844Z,15.02
2017-08-04T21:37:47.140Z,14.20
2017-08-04T21:40:16.695Z,14.50
2017-08-04T21:42:46.222Z,13.57
2017-08-04T21:45:15.731Z,14.32
2017-08-04T21:47:45.316Z,13.62
2017-08-04T21:50:15.155Z,12.93
2017-08-04T21:52:44.697Z,13.15
2017-08-04T21:56:35.435Z,15.13
2017-08-04T21:59:05.111Z,14.93
2017-08-04T22:01:34.738Z,15.17
2017-08-04T22:04:04.559Z,13.98
2017-08-04T22:06:34.090Z,15.33
2017-08-04T22:09:03.719Z,15.30
2017-08-04T22:11:33.551Z,15.82
2017-08-04T22:14:03.066Z,14.70
2017-08-04T22:16:32.598Z,14.20
2017-08-04T22:19:02.199Z,14.70
2017-08-04T22:21:31.727Z,14.02
2017-08-04T22:24:01.926Z,15.50
2017-08-04T22:26:31.446Z,15.40
2017-08-04T22:29:01.358Z,14.50
2017-08-04T22:31:31.411Z,14.27
2017-08-04T22:34:02.478Z,13.60
2017-08-04T22:36:32.937Z,13.85
2017-08-04T22:39:02.927Z,12.85
2017-08-04T22:41:32.794Z,14.10
2017-08-04T22:44:03.076Z,13.95
2017-08-04T22:46:33.928Z,12.37
2017-08-04T22:49:03.429Z,12.23
2017-08-04T22:51:32.937Z,13.60
2017-08-04T22:54:02.477Z,13.90
2017-08-04T22:56:32.310Z,14.27
2017-08-04T22:59:01.991Z,14.05
2017-08-04T23:01:31.480Z,13.62
2017-08-04T23:04:01.016Z,13.38
2017-08-04T23:06:30.533Z,13.30
2017-08-04T23:09:01.072Z,12.80
2017-08-04T23:11:31.031Z,13.25
2017-08-04T23:14:00.803Z,13.00
2017-08-04T23:16:31.735Z,12.70
2017-08-04T23:19:01.596Z,11.80
2017-08-04T23:21:31.439Z,12.70
2017-08-04T23:24:01.455Z,11.00
2017-08-04T23:26:30.999Z,12.70
2017-08-04T23:29:02.364Z,12.25
2017-08-04T23:31:33.062Z,10.90
2017-08-04T23:34:03.123Z,11.48
2017-08-04T23:36:33.566Z,11.10
2017-08-04T23:39:03.210Z,11.77
2017-08-04T23:41:33.117Z,12.05
2017-08-04T23:44:02.712Z,12.82
2017-08-04T23:46:32.214Z,13.00
2017-08-04T23:49:02.108Z,13.30
2017-08-04T23:51:31.656Z,12.80
2017-08-04T23:54:01.164Z,12.43
2017-08-04T23:56:31.562Z,11.25
2017-08-04T23:59:01.095Z,12.93
